sensor_id;sensor_type;location;lat;lon;timestamp;P1;durP1;ratioP1;P2;durP2;ratioP2
49376;SDS011;35253;34.688;33.040;2023-04-03T00:01:13;7.38;;;4.20;;
49376;SDS011;35253;34.688;33.040;2023-04-03T00:03:39;7.78;;;4.13;;
49376;SDS011;35253;34.688;33.040;2023-04-03T00:06:06;8.55;;;3.80;;
49376;SDS011;35253;34.688;33.040;2023-04-03T00:08:34;7.75;;;4.30;;
49376;SDS011;35253;34.688;33.040;2023-04-03T00:11:00;6.88;;;5.50;;
49376;SDS011;35253;34.688;33.040;2023-04-03T00:13:26;6.82;;;4.57;;
49376;SDS011;35253;34.688;33.040;2023-04-03T00:15:53;5.13;;;4.57;;
49376;SDS011;35253;34.688;33.040;2023-04-03T00:18:19;8.43;;;4.15;;
49376;SDS011;35253;34.688;33.040;2023-04-03T00:20:45;13.52;;;4.57;;
49376;SDS011;35253;34.688;33.040;2023-04-03T00:23:10;9.50;;;4.18;;
49376;SDS011;35253;34.688;33.040;2023-04-03T00:25:36;7.20;;;3.30;;
49376;SDS011;35253;34.688;33.040;2023-04-03T00:28:02;8.25;;;3.17;;
49376;SDS011;35253;34.688;33.040;2023-04-03T00:30:29;3.75;;;2.55;;
49376;SDS011;35253;34.688;33.040;2023-04-03T00:32:55;7.00;;;3.10;;
49376;SDS011;35253;34.688;33.040;2023-04-03T00:35:21;5.75;;;2.92;;
49376;SDS011;35253;34.688;33.040;2023-04-03T00:37:50;11.65;;;3.45;;
49376;SDS011;35253;34.688;33.040;2023-04-03T00:40:17;8.80;;;2.05;;
49376;SDS011;35253;34.688;33.040;2023-04-03T00:42:43;8.68;;;2.97;;
49376;SDS011;35253;34.688;33.040;2023-04-03T00:47:38;7.75;;;2.03;;
49376;SDS011;35253;34.688;33.040;2023-04-03T00:50:06;7.15;;;2.47;;
49376;SDS011;35253;34.688;33.040;2023-04-03T00:52:32;7.40;;;2.15;;
49376;SDS011;35253;34.688;33.040;2023-04-03T00:54:59;9.27;;;3.17;;
49376;SDS011;35253;34.688;33.040;2023-04-03T00:57:29;6.70;;;2.35;;
49376;SDS011;35253;34.688;33.040;2023-04-03T00:59:57;3.63;;;1.98;;
49376;SDS011;35253;34.688;33.040;2023-04-03T01:02:27;8.30;;;2.13;;
49376;SDS011;35253;34.688;33.040;2023-04-03T01:04:52;7.85;;;2.42;;
49376;SDS011;35253;34.688;33.040;2023-04-03T01:07:20;7.45;;;2.95;;
49376;SDS011;35253;34.688;33.040;2023-04-03T01:09:55;4.65;;;2.30;;
49376;SDS011;35253;34.688;33.040;2023-04-03T01:12:24;9.85;;;2.20;;
49376;SDS011;35253;34.688;33.040;2023-04-03T01:15:01;6.95;;;2.42;;
49376;SDS011;35253;34.688;33.040;2023-04-03T01:17:39;11.98;;;2.55;;
49376;SDS011;35253;34.688;33.040;2023-04-03T01:25:23;3.78;;;1.60;;
49376;SDS011;35253;34.688;33.040;2023-04-03T01:27:50;14.32;;;2.92;;
49376;SDS011;35253;34.688;33.040;2023-04-03T01:30:17;6.22;;;1.50;;
49376;SDS011;35253;34.688;33.040;2023-04-03T01:32:45;11.77;;;3.45;;
49376;SDS011;35253;34.688;33.040;2023-04-03T01:35:10;9.52;;;1.85;;
49376;SDS011;35253;34.688;33.040;2023-04-03T01:37:37;7.25;;;2.53;;
49376;SDS011;35253;34.688;33.040;2023-04-03T01:40:03;8.48;;;1.50;;
49376;SDS011;35253;34.688;33.040;2023-04-03T01:42:29;9.88;;;1.88;;
49376;SDS011;35253;34.688;33.040;2023-04-03T01:44:55;10.88;;;2.72;;
49376;SDS011;35253;34.688;33.040;2023-04-03T01:47:21;7.45;;;1.40;;
49376;SDS011;35253;34.688;33.040;2023-04-03T01:49:47;7.07;;;1.85;;
49376;SDS011;35253;34.688;33.040;2023-04-03T01:52:13;7.68;;;1.67;;
49376;SDS011;35253;34.688;33.040;2023-04-03T01:54:38;6.85;;;2.58;;
49376;SDS011;35253;34.688;33.040;2023-04-03T01:57:04;9.68;;;3.05;;
49376;SDS011;35253;34.688;33.040;2023-04-03T01:59:30;9.25;;;2.38;;
49376;SDS011;35253;34.688;33.040;2023-04-03T02:01:56;4.70;;;1.45;;
49376;SDS011;35253;34.688;33.040;2023-04-03T02:04:22;8.38;;;4.10;;
49376;SDS011;35253;34.688;33.040;2023-04-03T02:06:48;6.82;;;2.60;;
49376;SDS011;35253;34.688;33.040;2023-04-03T02:09:14;8.25;;;2.15;;
49376;SDS011;35253;34.688;33.040;2023-04-03T02:11:39;7.60;;;1.42;;
49376;SDS011;35253;34.688;33.040;2023-04-03T02:14:05;3.42;;;1.55;;
49376;SDS011;35253;34.688;33.040;2023-04-03T02:16:31;7.47;;;3.50;;
49376;SDS011;35253;34.688;33.040;2023-04-03T02:18:57;6.22;;;1.60;;
49376;SDS011;35253;34.688;33.040;2023-04-03T02:21:23;6.53;;;2.10;;
49376;SDS011;35253;34.688;33.040;2023-04-03T02:23:49;10.40;;;1.88;;
49376;SDS011;35253;34.688;33.040;2023-04-03T02:26:15;8.35;;;2.95;;
49376;SDS011;35253;34.688;33.040;2023-04-03T02:28:41;6.68;;;1.75;;
49376;SDS011;35253;34.688;33.040;2023-04-03T02:31:08;5.20;;;2.05;;
49376;SDS011;35253;34.688;33.040;2023-04-03T02:33:34;13.02;;;2.75;;
49376;SDS011;35253;34.688;33.040;2023-04-03T02:36:02;8.70;;;1.95;;
49376;SDS011;35253;34.688;33.040;2023-04-03T02:38:29;11.45;;;2.30;;
49376;SDS011;35253;34.688;33.040;2023-04-03T02:41:05;7.55;;;1.83;;
49376;SDS011;35253;34.688;33.040;2023-04-03T02:43:33;5.38;;;1.80;;
49376;SDS011;35253;34.688;33.040;2023-04-03T02:45:59;6.57;;;1.95;;
49376;SDS011;35253;34.688;33.040;2023-04-03T02:48:25;6.10;;;1.50;;
49376;SDS011;35253;34.688;33.040;2023-04-03T02:50:51;5.28;;;1.42;;
49376;SDS011;35253;34.688;33.040;2023-04-03T02:53:17;5.07;;;1.48;;
49376;SDS011;35253;34.688;33.040;2023-04-03T02:55:44;5.07;;;1.52;;
49376;SDS011;35253;34.688;33.040;2023-04-03T02:58:10;8.35;;;2.22;;
49376;SDS011;35253;34.688;33.040;2023-04-03T03:00:36;4.82;;;1.67;;
49376;SDS011;35253;34.688;33.040;2023-04-03T03:03:02;4.32;;;1.70;;
49376;SDS011;35253;34.688;33.040;2023-04-03T03:05:28;10.13;;;1.60;;
49376;SDS011;35253;34.688;33.040;2023-04-03T03:07:54;9.38;;;1.75;;
49376;SDS011;35253;34.688;33.040;2023-04-03T03:10:20;4.75;;;1.73;;
49376;SDS011;35253;34.688;33.040;2023-04-03T03:12:47;12.65;;;2.92;;
49376;SDS011;35253;34.688;33.040;2023-04-03T03:15:12;6.88;;;1.80;;
49376;SDS011;35253;34.688;33.040;2023-04-03T03:17:38;6.47;;;2.13;;
49376;SDS011;35253;34.688;33.040;2023-04-03T03:20:04;7.78;;;1.67;;
49376;SDS011;35253;34.688;33.040;2023-04-03T03:22:31;5.78;;;1.77;;
49376;SDS011;35253;34.688;33.040;2023-04-03T03:24:57;19.52;;;2.78;;
49376;SDS011;35253;34.688;33.040;2023-04-03T03:27:22;9.90;;;2.40;;
49376;SDS011;35253;34.688;33.040;2023-04-03T03:29:49;7.28;;;2.50;;
49376;SDS011;35253;34.688;33.040;2023-04-03T03:32:15;9.48;;;1.90;;
49376;SDS011;35253;34.688;33.040;2023-04-03T03:34:40;10.32;;;2.00;;
49376;SDS011;35253;34.688;33.040;2023-04-03T03:37:06;11.55;;;2.00;;
49376;SDS011;35253;34.688;33.040;2023-04-03T03:39:32;6.00;;;1.77;;
49376;SDS011;35253;34.688;33.040;2023-04-03T03:41:58;7.85;;;2.15;;
49376;SDS011;35253;34.688;33.040;2023-04-03T03:44:23;10.48;;;2.70;;
49376;SDS011;35253;34.688;33.040;2023-04-03T03:46:49;13.27;;;2.00;;
49376;SDS011;35253;34.688;33.040;2023-04-03T03:49:15;8.23;;;1.98;;
49376;SDS011;35253;34.688;33.040;2023-04-03T03:51:41;11.98;;;2.03;;
49376;SDS011;35253;34.688;33.040;2023-04-03T03:54:06;11.50;;;2.97;;
49376;SDS011;35253;34.688;33.040;2023-04-03T03:56:32;12.20;;;2.22;;
49376;SDS011;35253;34.688;33.040;2023-04-03T03:58:58;8.88;;;1.73;;
49376;SDS011;35253;34.688;33.040;2023-04-03T04:01:24;4.78;;;1.88;;
49376;SDS011;35253;34.688;33.040;2023-04-03T04:03:50;7.68;;;2.17;;
49376;SDS011;35253;34.688;33.040;2023-04-03T04:06:16;11.13;;;2.25;;
49376;SDS011;35253;34.688;33.040;2023-04-03T04:08:42;11.27;;;1.67;;
49376;SDS011;35253;34.688;33.040;2023-04-03T04:11:08;9.82;;;1.98;;
49376;SDS011;35253;34.688;33.040;2023-04-03T04:13:34;12.27;;;2.08;;
49376;SDS011;35253;34.688;33.040;2023-04-03T04:16:00;13.73;;;2.28;;
49376;SDS011;35253;34.688;33.040;2023-04-03T04:18:27;15.40;;;2.67;;
49376;SDS011;35253;34.688;33.040;2023-04-03T04:20:52;16.40;;;3.22;;
49376;SDS011;35253;34.688;33.040;2023-04-03T04:23:18;31.40;;;8.50;;
49376;SDS011;35253;34.688;33.040;2023-04-03T04:25:45;10.23;;;2.67;;
49376;SDS011;35253;34.688;33.040;2023-04-03T04:28:11;8.52;;;2.53;;
49376;SDS011;35253;34.688;33.040;2023-04-03T04:30:37;12.52;;;2.58;;
49376;SDS011;35253;34.688;33.040;2023-04-03T04:33:03;16.80;;;3.40;;
49376;SDS011;35253;34.688;33.040;2023-04-03T04:35:29;17.65;;;3.67;;
49376;SDS011;35253;34.688;33.040;2023-04-03T04:37:55;20.80;;;2.85;;
49376;SDS011;35253;34.688;33.040;2023-04-03T04:40:21;15.25;;;3.13;;
49376;SDS011;35253;34.688;33.040;2023-04-03T04:42:47;13.98;;;2.63;;
49376;SDS011;35253;34.688;33.040;2023-04-03T04:45:13;17.88;;;2.65;;
49376;SDS011;35253;34.688;33.040;2023-04-03T04:47:40;13.93;;;3.10;;
49376;SDS011;35253;34.688;33.040;2023-04-03T04:50:06;13.75;;;3.03;;
49376;SDS011;35253;34.688;33.040;2023-04-03T04:52:32;19.38;;;4.43;;
49376;SDS011;35253;34.688;33.040;2023-04-03T04:54:57;25.40;;;4.22;;
49376;SDS011;35253;34.688;33.040;2023-04-03T04:57:23;14.95;;;2.70;;
49376;SDS011;35253;34.688;33.040;2023-04-03T04:59:49;17.30;;;3.40;;
49376;SDS011;35253;34.688;33.040;2023-04-03T05:02:14;7.75;;;2.58;;
49376;SDS011;35253;34.688;33.040;2023-04-03T05:04:40;13.15;;;2.28;;
49376;SDS011;35253;34.688;33.040;2023-04-03T05:07:06;6.90;;;2.00;;
49376;SDS011;35253;34.688;33.040;2023-04-03T05:09:32;8.23;;;2.70;;
49376;SDS011;35253;34.688;33.040;2023-04-03T05:11:58;16.85;;;3.20;;
49376;SDS011;35253;34.688;33.040;2023-04-03T05:14:23;20.55;;;3.72;;
49376;SDS011;35253;34.688;33.040;2023-04-03T05:16:49;17.38;;;3.75;;
49376;SDS011;35253;34.688;33.040;2023-04-03T05:19:19;17.70;;;3.03;;
49376;SDS011;35253;34.688;33.040;2023-04-03T05:21:45;9.88;;;2.50;;
49376;SDS011;35253;34.688;33.040;2023-04-03T05:24:11;20.52;;;3.70;;
49376;SDS011;35253;34.688;33.040;2023-04-03T05:26:37;10.82;;;2.72;;
49376;SDS011;35253;34.688;33.040;2023-04-03T05:29:03;9.85;;;2.28;;
49376;SDS011;35253;34.688;33.040;2023-04-03T05:31:29;7.53;;;1.88;;
49376;SDS011;35253;34.688;33.040;2023-04-03T05:33:55;8.70;;;2.70;;
49376;SDS011;35253;34.688;33.040;2023-04-03T05:36:20;17.33;;;3.35;;
49376;SDS011;35253;34.688;33.040;2023-04-03T05:38:46;8.40;;;2.28;;
49376;SDS011;35253;34.688;33.040;2023-04-03T05:41:12;17.90;;;3.33;;
49376;SDS011;35253;34.688;33.040;2023-04-03T05:43:38;14.48;;;3.05;;
49376;SDS011;35253;34.688;33.040;2023-04-03T05:46:08;14.05;;;2.38;;
49376;SDS011;35253;34.688;33.040;2023-04-03T05:48:37;9.95;;;2.22;;
49376;SDS011;35253;34.688;33.040;2023-04-03T05:51:04;11.63;;;3.78;;
49376;SDS011;35253;34.688;33.040;2023-04-03T05:53:32;11.45;;;2.42;;
49376;SDS011;35253;34.688;33.040;2023-04-03T05:56:01;10.52;;;3.55;;
49376;SDS011;35253;34.688;33.040;2023-04-03T05:58:27;9.40;;;3.35;;
49376;SDS011;35253;34.688;33.040;2023-04-03T06:00:52;7.25;;;2.17;;
49376;SDS011;35253;34.688;33.040;2023-04-03T06:03:19;12.35;;;3.55;;
49376;SDS011;35253;34.688;33.040;2023-04-03T06:05:45;12.00;;;4.03;;
49376;SDS011;35253;34.688;33.040;2023-04-03T06:08:11;9.45;;;2.50;;
49376;SDS011;35253;34.688;33.040;2023-04-03T06:10:38;17.35;;;4.18;;
49376;SDS011;35253;34.688;33.040;2023-04-03T06:13:04;12.45;;;2.60;;
49376;SDS011;35253;34.688;33.040;2023-04-03T06:15:29;24.00;;;4.88;;
49376;SDS011;35253;34.688;33.040;2023-04-03T06:17:55;10.80;;;2.42;;
49376;SDS011;35253;34.688;33.040;2023-04-03T06:20:21;7.05;;;3.42;;
49376;SDS011;35253;34.688;33.040;2023-04-03T06:22:47;19.02;;;4.00;;
49376;SDS011;35253;34.688;33.040;2023-04-03T06:25:13;8.68;;;4.32;;
49376;SDS011;35253;34.688;33.040;2023-04-03T06:27:39;11.80;;;6.55;;
49376;SDS011;35253;34.688;33.040;2023-04-03T06:30:06;13.80;;;7.55;;
49376;SDS011;35253;34.688;33.040;2023-04-03T06:32:32;16.35;;;6.72;;
49376;SDS011;35253;34.688;33.040;2023-04-03T06:34:58;17.67;;;8.32;;
49376;SDS011;35253;34.688;33.040;2023-04-03T06:37:24;20.08;;;9.73;;
49376;SDS011;35253;34.688;33.040;2023-04-03T06:39:57;20.80;;;11.65;;
49376;SDS011;35253;34.688;33.040;2023-04-03T06:42:25;22.17;;;12.68;;
49376;SDS011;35253;34.688;33.040;2023-04-03T06:44:51;30.75;;;13.50;;
49376;SDS011;35253;34.688;33.040;2023-04-03T06:47:17;18.63;;;14.57;;
49376;SDS011;35253;34.688;33.040;2023-04-03T06:49:42;26.75;;;16.25;;
49376;SDS011;35253;34.688;33.040;2023-04-03T06:52:09;24.00;;;13.93;;
49376;SDS011;35253;34.688;33.040;2023-04-03T06:54:37;22.15;;;14.40;;
49376;SDS011;35253;34.688;33.040;2023-04-03T06:57:03;20.70;;;15.05;;
49376;SDS011;35253;34.688;33.040;2023-04-03T06:59:29;19.42;;;16.05;;
49376;SDS011;35253;34.688;33.040;2023-04-03T07:01:55;24.00;;;14.23;;
49376;SDS011;35253;34.688;33.040;2023-04-03T07:04:20;21.88;;;15.30;;
49376;SDS011;35253;34.688;33.040;2023-04-03T07:06:47;19.45;;;12.73;;
49376;SDS011;35253;34.688;33.040;2023-04-03T07:09:13;19.27;;;11.93;;
49376;SDS011;35253;34.688;33.040;2023-04-03T07:11:39;18.88;;;11.23;;
49376;SDS011;35253;34.688;33.040;2023-04-03T07:14:05;17.65;;;12.00;;
49376;SDS011;35253;34.688;33.040;2023-04-03T07:16:33;19.48;;;12.60;;
49376;SDS011;35253;34.688;33.040;2023-04-03T07:19:03;19.17;;;12.25;;
49376;SDS011;35253;34.688;33.040;2023-04-03T07:21:28;13.80;;;11.13;;
49376;SDS011;35253;34.688;33.040;2023-04-03T07:23:54;20.67;;;13.43;;
49376;SDS011;35253;34.688;33.040;2023-04-03T07:26:21;22.80;;;13.38;;
49376;SDS011;35253;34.688;33.040;2023-04-03T07:28:47;18.20;;;12.20;;
49376;SDS011;35253;34.688;33.040;2023-04-03T07:31:13;16.95;;;11.48;;
49376;SDS011;35253;34.688;33.040;2023-04-03T07:33:41;12.30;;;9.00;;
49376;SDS011;35253;34.688;33.040;2023-04-03T07:36:07;15.90;;;9.85;;
49376;SDS011;35253;34.688;33.040;2023-04-03T07:38:35;16.13;;;10.15;;
49376;SDS011;35253;34.688;33.040;2023-04-03T07:41:01;17.75;;;9.93;;
49376;SDS011;35253;34.688;33.040;2023-04-03T07:43:28;13.10;;;8.05;;
49376;SDS011;35253;34.688;33.040;2023-04-03T07:45:54;19.08;;;8.40;;
49376;SDS011;35253;34.688;33.040;2023-04-03T07:48:24;12.15;;;7.43;;
49376;SDS011;35253;34.688;33.040;2023-04-03T07:50:50;19.63;;;8.55;;
49376;SDS011;35253;34.688;33.040;2023-04-03T07:53:17;12.48;;;7.28;;
49376;SDS011;35253;34.688;33.040;2023-04-03T07:55:46;11.18;;;6.70;;
49376;SDS011;35253;34.688;33.040;2023-04-03T07:58:14;24.23;;;8.52;;
49376;SDS011;35253;34.688;33.040;2023-04-03T08:00:41;13.02;;;6.22;;
49376;SDS011;35253;34.688;33.040;2023-04-03T08:03:09;16.10;;;5.55;;
49376;SDS011;35253;34.688;33.040;2023-04-03T08:05:39;13.25;;;5.97;;
49376;SDS011;35253;34.688;33.040;2023-04-03T08:08:07;11.88;;;6.03;;
49376;SDS011;35253;34.688;33.040;2023-04-03T08:10:33;19.55;;;5.68;;
49376;SDS011;35253;34.688;33.040;2023-04-03T08:12:59;8.43;;;3.83;;
49376;SDS011;35253;34.688;33.040;2023-04-03T08:15:25;5.90;;;3.85;;
49376;SDS011;35253;34.688;33.040;2023-04-03T08:17:51;6.78;;;3.78;;
49376;SDS011;35253;34.688;33.040;2023-04-03T08:20:17;11.10;;;4.55;;
49376;SDS011;35253;34.688;33.040;2023-04-03T08:22:43;8.32;;;3.50;;
49376;SDS011;35253;34.688;33.040;2023-04-03T08:25:09;11.35;;;3.03;;
49376;SDS011;35253;34.688;33.040;2023-04-03T08:27:35;5.55;;;4.25;;
49376;SDS011;35253;34.688;33.040;2023-04-03T08:30:01;11.82;;;4.45;;
49376;SDS011;35253;34.688;33.040;2023-04-03T08:32:26;10.75;;;4.07;;
49376;SDS011;35253;34.688;33.040;2023-04-03T08:34:53;11.00;;;4.32;;
49376;SDS011;35253;34.688;33.040;2023-04-03T08:37:18;11.45;;;3.38;;
49376;SDS011;35253;34.688;33.040;2023-04-03T08:39:44;7.82;;;3.80;;
49376;SDS011;35253;34.688;33.040;2023-04-03T08:42:14;10.13;;;3.20;;
49376;SDS011;35253;34.688;33.040;2023-04-03T08:44:57;7.25;;;3.10;;
49376;SDS011;35253;34.688;33.040;2023-04-03T08:47:46;10.60;;;3.63;;
49376;SDS011;35253;34.688;33.040;2023-04-03T08:50:40;12.00;;;3.75;;
49376;SDS011;35253;34.688;33.040;2023-04-03T08:53:12;9.52;;;3.88;;
49376;SDS011;35253;34.688;33.040;2023-04-03T08:55:45;4.78;;;2.30;;
49376;SDS011;35253;34.688;33.040;2023-04-03T08:58:16;10.57;;;3.38;;
49376;SDS011;35253;34.688;33.040;2023-04-03T09:03:21;10.45;;;3.13;;
49376;SDS011;35253;34.688;33.040;2023-04-03T09:05:49;13.23;;;3.92;;
49376;SDS011;35253;34.688;33.040;2023-04-03T09:08:22;5.80;;;3.35;;
49376;SDS011;35253;34.688;33.040;2023-04-03T09:13:58;15.88;;;4.28;;
49376;SDS011;35253;34.688;33.040;2023-04-03T09:21:56;8.95;;;3.47;;
49376;SDS011;35253;34.688;33.040;2023-04-03T09:24:22;4.05;;;1.98;;
49376;SDS011;35253;34.688;33.040;2023-04-03T09:26:59;9.68;;;4.18;;
49376;SDS011;35253;34.688;33.040;2023-04-03T09:29:38;9.05;;;2.85;;
49376;SDS011;35253;34.688;33.040;2023-04-03T09:32:21;15.75;;;3.28;;
49376;SDS011;35253;34.688;33.040;2023-04-03T09:34:56;15.68;;;3.22;;
49376;SDS011;35253;34.688;33.040;2023-04-03T09:40:27;10.23;;;2.63;;
49376;SDS011;35253;34.688;33.040;2023-04-03T09:43:02;7.30;;;2.80;;
49376;SDS011;35253;34.688;33.040;2023-04-03T09:45:55;12.05;;;3.42;;
49376;SDS011;35253;34.688;33.040;2023-04-03T09:48:43;5.95;;;2.05;;
49376;SDS011;35253;34.688;33.040;2023-04-03T09:51:24;5.93;;;1.90;;
49376;SDS011;35253;34.688;33.040;2023-04-03T09:53:52;10.73;;;3.38;;
49376;SDS011;35253;34.688;33.040;2023-04-03T10:01:27;5.32;;;2.35;;
49376;SDS011;35253;34.688;33.040;2023-04-03T10:04:17;13.98;;;2.53;;
49376;SDS011;35253;34.688;33.040;2023-04-03T10:06:48;9.88;;;2.47;;
49376;SDS011;35253;34.688;33.040;2023-04-03T10:09:29;9.27;;;2.63;;
49376;SDS011;35253;34.688;33.040;2023-04-03T10:12:06;15.98;;;2.95;;
49376;SDS011;35253;34.688;33.040;2023-04-03T10:14:42;7.35;;;2.08;;
49376;SDS011;35253;34.688;33.040;2023-04-03T10:23:18;7.25;;;1.95;;
49376;SDS011;35253;34.688;33.040;2023-04-03T10:28:57;5.78;;;1.95;;
49376;SDS011;35253;34.688;33.040;2023-04-03T10:42:18;10.43;;;1.73;;
49376;SDS011;35253;34.688;33.040;2023-04-03T10:47:47;10.23;;;2.05;;
49376;SDS011;35253;34.688;33.040;2023-04-03T10:50:43;13.60;;;3.00;;
49376;SDS011;35253;34.688;33.040;2023-04-03T10:58:45;6.85;;;3.03;;
49376;SDS011;35253;34.688;33.040;2023-04-03T11:01:19;7.03;;;2.38;;
49376;SDS011;35253;34.688;33.040;2023-04-03T11:03:53;5.35;;;1.48;;
49376;SDS011;35253;34.688;33.040;2023-04-03T11:06:24;7.38;;;1.50;;
49376;SDS011;35253;34.688;33.040;2023-04-03T11:09:30;6.60;;;1.90;;
49376;SDS011;35253;34.688;33.040;2023-04-03T11:12:10;8.30;;;1.80;;
49376;SDS011;35253;34.688;33.040;2023-04-03T11:14:39;8.93;;;3.03;;
49376;SDS011;35253;34.688;33.040;2023-04-03T11:19:57;7.05;;;1.70;;
49376;SDS011;35253;34.688;33.040;2023-04-03T11:22:44;6.40;;;1.63;;
49376;SDS011;35253;34.688;33.040;2023-04-03T11:25:20;5.85;;;1.27;;
49376;SDS011;35253;34.688;33.040;2023-04-03T11:27:49;6.70;;;2.08;;
49376;SDS011;35253;34.688;33.040;2023-04-03T11:36:00;6.88;;;1.40;;
49376;SDS011;35253;34.688;33.040;2023-04-03T11:38:38;4.13;;;1.48;;
49376;SDS011;35253;34.688;33.040;2023-04-03T11:41:09;6.20;;;2.40;;
49376;SDS011;35253;34.688;33.040;2023-04-03T11:43:55;6.78;;;1.60;;
49376;SDS011;35253;34.688;33.040;2023-04-03T11:46:22;4.85;;;1.20;;
49376;SDS011;35253;34.688;33.040;2023-04-03T11:49:19;8.55;;;1.83;;
49376;SDS011;35253;34.688;33.040;2023-04-03T11:52:11;7.45;;;1.85;;
49376;SDS011;35253;34.688;33.040;2023-04-03T12:13:42;9.57;;;2.13;;
49376;SDS011;35253;34.688;33.040;2023-04-03T12:16:29;6.13;;;2.47;;
49376;SDS011;35253;34.688;33.040;2023-04-03T12:34:56;5.45;;;1.30;;
49376;SDS011;35253;34.688;33.040;2023-04-03T12:38:01;5.65;;;0.98;;
49376;SDS011;35253;34.688;33.040;2023-04-03T12:46:35;4.55;;;1.33;;
49376;SDS011;35253;34.688;33.040;2023-04-03T12:49:12;2.80;;;1.73;;
49376;SDS011;35253;34.688;33.040;2023-04-03T12:51:47;3.92;;;1.85;;
49376;SDS011;35253;34.688;33.040;2023-04-03T12:54:15;4.38;;;1.52;;
49376;SDS011;35253;34.688;33.040;2023-04-03T12:56:44;5.40;;;1.40;;
49376;SDS011;35253;34.688;33.040;2023-04-03T12:59:19;5.80;;;2.30;;
49376;SDS011;35253;34.688;33.040;2023-04-03T13:01:58;5.85;;;1.73;;
49376;SDS011;35253;34.688;33.040;2023-04-03T13:04:26;8.45;;;1.50;;
49376;SDS011;35253;34.688;33.040;2023-04-03T13:06:53;6.55;;;1.77;;
49376;SDS011;35253;34.688;33.040;2023-04-03T13:09:27;5.82;;;1.85;;
49376;SDS011;35253;34.688;33.040;2023-04-03T13:11:58;6.95;;;1.45;;
49376;SDS011;35253;34.688;33.040;2023-04-03T13:14:28;6.63;;;2.50;;
49376;SDS011;35253;34.688;33.040;2023-04-03T13:16:55;14.40;;;5.05;;
49376;SDS011;35253;34.688;33.040;2023-04-03T13:19:24;21.45;;;4.93;;
49376;SDS011;35253;34.688;33.040;2023-04-03T13:22:38;11.05;;;3.90;;
49376;SDS011;35253;34.688;33.040;2023-04-03T13:24:53;9.25;;;2.35;;
49376;SDS011;35253;34.688;33.040;2023-04-03T13:27:21;4.43;;;1.85;;
49376;SDS011;35253;34.688;33.040;2023-04-03T13:29:51;5.53;;;1.55;;
49376;SDS011;35253;34.688;33.040;2023-04-03T13:32:23;6.80;;;1.75;;
49376;SDS011;35253;34.688;33.040;2023-04-03T13:34:51;7.30;;;2.03;;
49376;SDS011;35253;34.688;33.040;2023-04-03T13:37:35;11.75;;;3.17;;
49376;SDS011;35253;34.688;33.040;2023-04-03T13:40:03;6.93;;;1.83;;
49376;SDS011;35253;34.688;33.040;2023-04-03T13:42:33;11.32;;;2.15;;
49376;SDS011;35253;34.688;33.040;2023-04-03T13:45:18;4.88;;;1.40;;
49376;SDS011;35253;34.688;33.040;2023-04-03T13:47:45;3.58;;;1.92;;
49376;SDS011;35253;34.688;33.040;2023-04-03T13:50:23;6.13;;;2.03;;
49376;SDS011;35253;34.688;33.040;2023-04-03T13:53:33;11.93;;;3.33;;
49376;SDS011;35253;34.688;33.040;2023-04-03T13:58:54;8.82;;;1.83;;
49376;SDS011;35253;34.688;33.040;2023-04-03T14:02:12;5.55;;;1.70;;
49376;SDS011;35253;34.688;33.040;2023-04-03T14:04:33;3.92;;;1.75;;
49376;SDS011;35253;34.688;33.040;2023-04-03T14:07:09;9.43;;;1.73;;
49376;SDS011;35253;34.688;33.040;2023-04-03T14:09:36;4.43;;;1.35;;
49376;SDS011;35253;34.688;33.040;2023-04-03T14:12:04;6.75;;;1.40;;
49376;SDS011;35253;34.688;33.040;2023-04-03T14:14:34;7.75;;;1.85;;
49376;SDS011;35253;34.688;33.040;2023-04-03T14:17:02;10.35;;;1.58;;
49376;SDS011;35253;34.688;33.040;2023-04-03T14:19:38;5.95;;;1.58;;
49376;SDS011;35253;34.688;33.040;2023-04-03T14:22:17;9.50;;;1.40;;
49376;SDS011;35253;34.688;33.040;2023-04-03T14:24:48;8.57;;;1.85;;
49376;SDS011;35253;34.688;33.040;2023-04-03T14:27:20;4.20;;;1.42;;
49376;SDS011;35253;34.688;33.040;2023-04-03T14:29:51;10.13;;;2.70;;
49376;SDS011;35253;34.688;33.040;2023-04-03T14:32:19;3.78;;;1.17;;
49376;SDS011;35253;34.688;33.040;2023-04-03T14:34:47;10.52;;;2.22;;
49376;SDS011;35253;34.688;33.040;2023-04-03T14:37:15;8.30;;;2.45;;
49376;SDS011;35253;34.688;33.040;2023-04-03T14:39:45;10.68;;;1.85;;
49376;SDS011;35253;34.688;33.040;2023-04-03T14:42:13;11.50;;;1.80;;
49376;SDS011;35253;34.688;33.040;2023-04-03T14:44:41;11.93;;;2.42;;
49376;SDS011;35253;34.688;33.040;2023-04-03T14:47:13;14.15;;;3.97;;
49376;SDS011;35253;34.688;33.040;2023-04-03T14:49:45;6.50;;;1.95;;
49376;SDS011;35253;34.688;33.040;2023-04-03T14:52:27;9.55;;;1.77;;
49376;SDS011;35253;34.688;33.040;2023-04-03T14:54:59;6.60;;;1.80;;
49376;SDS011;35253;34.688;33.040;2023-04-03T14:57:26;7.63;;;2.15;;
49376;SDS011;35253;34.688;33.040;2023-04-03T14:59:53;7.93;;;1.70;;
49376;SDS011;35253;34.688;33.040;2023-04-03T15:02:27;7.47;;;3.03;;
49376;SDS011;35253;34.688;33.040;2023-04-03T15:04:53;12.70;;;3.83;;
49376;SDS011;35253;34.688;33.040;2023-04-03T15:07:20;8.55;;;3.38;;
49376;SDS011;35253;34.688;33.040;2023-04-03T15:09:47;7.22;;;2.70;;
49376;SDS011;35253;34.688;33.040;2023-04-03T15:12:13;5.13;;;1.70;;
49376;SDS011;35253;34.688;33.040;2023-04-03T15:14:39;5.05;;;1.77;;
49376;SDS011;35253;34.688;33.040;2023-04-03T15:17:05;8.10;;;2.47;;
49376;SDS011;35253;34.688;33.040;2023-04-03T15:19:38;11.25;;;2.42;;
49376;SDS011;35253;34.688;33.040;2023-04-03T15:22:09;12.48;;;3.38;;
49376;SDS011;35253;34.688;33.040;2023-04-03T15:24:39;5.15;;;2.05;;
49376;SDS011;35253;34.688;33.040;2023-04-03T15:27:04;7.57;;;1.73;;
49376;SDS011;35253;34.688;33.040;2023-04-03T15:29:30;10.95;;;2.30;;
49376;SDS011;35253;34.688;33.040;2023-04-03T15:31:56;11.20;;;2.17;;
49376;SDS011;35253;34.688;33.040;2023-04-03T15:34:21;15.38;;;2.90;;
49376;SDS011;35253;34.688;33.040;2023-04-03T15:36:47;5.53;;;1.88;;
49376;SDS011;35253;34.688;33.040;2023-04-03T15:39:13;9.25;;;2.30;;
49376;SDS011;35253;34.688;33.040;2023-04-03T15:41:39;11.05;;;1.80;;
49376;SDS011;35253;34.688;33.040;2023-04-03T15:44:05;9.25;;;2.40;;
49376;SDS011;35253;34.688;33.040;2023-04-03T15:46:30;11.65;;;3.20;;
49376;SDS011;35253;34.688;33.040;2023-04-03T15:48:57;8.50;;;2.80;;
49376;SDS011;35253;34.688;33.040;2023-04-03T15:51:23;12.32;;;2.13;;
49376;SDS011;35253;34.688;33.040;2023-04-03T15:53:49;7.22;;;2.13;;
49376;SDS011;35253;34.688;33.040;2023-04-03T15:56:14;9.18;;;3.15;;
49376;SDS011;35253;34.688;33.040;2023-04-03T15:58:40;16.02;;;3.53;;
49376;SDS011;35253;34.688;33.040;2023-04-03T16:01:06;11.32;;;3.50;;
49376;SDS011;35253;34.688;33.040;2023-04-03T16:03:34;8.68;;;2.42;;
49376;SDS011;35253;34.688;33.040;2023-04-03T16:06:00;10.15;;;1.92;;
49376;SDS011;35253;34.688;33.040;2023-04-03T16:08:26;6.55;;;1.83;;
49376;SDS011;35253;34.688;33.040;2023-04-03T16:10:52;7.40;;;1.85;;
49376;SDS011;35253;34.688;33.040;2023-04-03T16:13:18;9.05;;;1.98;;
49376;SDS011;35253;34.688;33.040;2023-04-03T16:15:44;17.45;;;3.70;;
49376;SDS011;35253;34.688;33.040;2023-04-03T16:18:10;12.55;;;3.78;;
49376;SDS011;35253;34.688;33.040;2023-04-03T16:20:36;15.05;;;2.38;;
49376;SDS011;35253;34.688;33.040;2023-04-03T16:23:02;11.07;;;2.70;;
49376;SDS011;35253;34.688;33.040;2023-04-03T16:25:28;11.55;;;2.85;;
49376;SDS011;35253;34.688;33.040;2023-04-03T16:27:53;9.25;;;1.67;;